createdAt,value
2022-09-26T00:00:20.036Z,35.91
2022-09-26T00:00:50.101Z,35.89
2022-09-26T00:01:20.184Z,35.94
2022-09-26T00:01:50.346Z,35.96
2022-09-26T00:02:20.300Z,35.94
2022-09-26T00:02:50.419Z,35.99
2022-09-26T00:03:20.353Z,36.01
2022-09-26T00:03:50.368Z,35.98
2022-09-26T00:04:23.333Z,35.99
2022-09-26T00:04:50.495Z,35.98
2022-09-26T00:05:20.504Z,36.03
2022-09-26T00:05:50.535Z,36.03
2022-09-26T00:06:20.535Z,36.09
2022-09-26T00:06:50.559Z,36.07
2022-09-26T00:07:20.569Z,36.10
2022-09-26T00:07:50.584Z,36.08
2022-09-26T00:08:20.597Z,36.08
2022-09-26T00:08:50.608Z,36.10
2022-09-26T00:09:20.630Z,36.08
2022-09-26T00:09:50.647Z,36.10
2022-09-26T00:10:20.661Z,36.08
2022-09-26T00:10:50.674Z,36.07
2022-09-26T00:11:20.685Z,36.06
2022-09-26T00:11:50.705Z,36.07
2022-09-26T00:12:20.718Z,36.06
2022-09-26T00:12:50.735Z,36.05
2022-09-26T00:13:20.751Z,36.02
2022-09-26T00:13:50.766Z,36.06
2022-09-26T00:14:20.777Z,36.03
2022-09-26T00:14:50.800Z,36.00
2022-09-26T00:15:20.810Z,35.96
2022-09-26T00:15:50.850Z,35.98
2022-09-26T00:16:20.900Z,36.02
2022-09-26T00:16:51.037Z,35.95
2022-09-26T00:17:20.951Z,35.98
2022-09-26T00:17:50.978Z,35.94
2022-09-26T00:18:21.006Z,35.95
2022-09-26T00:18:51.005Z,35.97
2022-09-26T00:19:21.018Z,35.90
2022-09-26T00:19:51.039Z,35.90
2022-09-26T00:20:21.061Z,35.91
2022-09-26T00:20:51.072Z,35.89
2022-09-26T00:21:21.084Z,35.86
2022-09-26T00:21:51.102Z,35.85
2022-09-26T00:22:21.111Z,35.86
2022-09-26T00:22:51.132Z,35.83
2022-09-26T00:23:21.143Z,35.85
2022-09-26T00:23:51.165Z,35.82
2022-09-26T00:24:21.174Z,35.79
2022-09-26T00:24:51.190Z,35.81
2022-09-26T00:25:21.205Z,35.79
2022-09-26T00:25:51.234Z,35.80
2022-09-26T00:26:21.238Z,35.79
2022-09-26T00:26:51.253Z,35.77
2022-09-26T00:27:21.266Z,35.77
2022-09-26T00:27:51.285Z,35.77
2022-09-26T00:28:21.308Z,35.78
2022-09-26T00:28:51.319Z,35.74
2022-09-26T00:29:21.427Z,35.71
2022-09-26T00:29:51.536Z,35.76
2022-09-26T00:30:21.738Z,35.75
2022-09-26T00:30:51.806Z,35.74
2022-09-26T00:31:22.088Z,35.73
2022-09-26T00:31:51.905Z,35.74
2022-09-26T00:32:22.003Z,35.70
2022-09-26T00:32:52.114Z,35.74
2022-09-26T00:33:22.213Z,35.77
2022-09-26T00:33:52.323Z,35.70
2022-09-26T00:34:22.428Z,35.72
2022-09-26T00:34:52.534Z,35.73
2022-09-26T00:35:22.638Z,35.69
2022-09-26T00:35:52.755Z,35.66
2022-09-26T00:36:29.744Z,35.67
2022-09-26T00:36:52.854Z,35.68
2022-09-26T00:37:22.966Z,35.68
2022-09-26T00:37:53.075Z,35.68
2022-09-26T00:38:23.176Z,35.70
2022-09-26T00:38:53.283Z,35.66
2022-09-26T00:39:23.297Z,35.71
2022-09-26T00:39:53.312Z,35.72
2022-09-26T00:40:23.373Z,35.74
2022-09-26T00:40:53.439Z,35.72
2022-09-26T00:41:23.474Z,35.72
2022-09-26T00:41:53.503Z,35.72
2022-09-26T00:42:23.533Z,35.70
2022-09-26T00:42:53.535Z,35.70
2022-09-26T00:43:23.547Z,35.74
2022-09-26T00:43:53.571Z,35.71
2022-09-26T00:44:23.587Z,35.64
2022-09-26T00:44:53.612Z,35.67
2022-09-26T00:45:23.629Z,35.68
2022-09-26T00:45:53.715Z,35.65
2022-09-26T00:46:23.773Z,35.67
2022-09-26T00:46:53.795Z,35.69
2022-09-26T00:47:23.813Z,35.68
2022-09-26T00:47:53.825Z,35.71
2022-09-26T00:48:23.837Z,35.71
2022-09-26T00:48:53.854Z,35.71
2022-09-26T00:49:23.869Z,35.73
2022-09-26T00:49:53.887Z,35.76
2022-09-26T00:50:23.908Z,35.79
2022-09-26T00:50:53.929Z,35.77
2022-09-26T00:51:23.946Z,35.86
2022-09-26T00:51:53.962Z,35.87
2022-09-26T00:52:23.976Z,35.87
2022-09-26T00:52:54.004Z,35.85
2022-09-26T00:53:24.023Z,35.89
2022-09-26T00:53:54.036Z,35.92
2022-09-26T00:54:24.050Z,35.89
2022-09-26T00:54:54.070Z,35.90
2022-09-26T00:55:24.087Z,35.88
2022-09-26T00:55:54.104Z,35.88
2022-09-26T00:56:24.124Z,35.94
2022-09-26T00:56:54.137Z,35.93
2022-09-26T00:57:24.151Z,35.92
2022-09-26T00:57:54.162Z,35.93
2022-09-26T00:58:24.177Z,35.93
2022-09-26T00:58:54.194Z,35.89
2022-09-26T00:59:24.209Z,35.94
2022-09-26T00:59:54.223Z,35.89
2022-09-26T01:00:24.236Z,35.94
2022-09-26T01:00:54.430Z,35.90
2022-09-26T01:01:24.469Z,35.95
2022-09-26T01:01:54.486Z,35.91
2022-09-26T01:02:24.510Z,35.89
2022-09-26T01:02:54.424Z,35.89
2022-09-26T01:03:24.441Z,35.88
2022-09-26T01:03:54.450Z,35.87
2022-09-26T01:04:24.462Z,35.86
2022-09-26T01:04:54.482Z,35.84
2022-09-26T01:05:24.495Z,35.89
2022-09-26T01:05:54.514Z,35.84
2022-09-26T01:06:24.531Z,35.84
2022-09-26T01:06:54.547Z,35.76
2022-09-26T01:07:24.555Z,35.80
2022-09-26T01:07:54.566Z,35.83
2022-09-26T01:08:24.584Z,35.80
2022-09-26T01:08:54.597Z,35.75
2022-09-26T01:09:24.610Z,35.80
2022-09-26T01:09:54.624Z,35.86
2022-09-26T01:10:24.642Z,35.83
2022-09-26T01:10:54.659Z,35.80
2022-09-26T01:11:24.682Z,35.79
2022-09-26T01:11:54.697Z,35.82
2022-09-26T01:12:24.715Z,35.77
2022-09-26T01:12:54.730Z,35.82
2022-09-26T01:13:24.748Z,35.76
2022-09-26T01:13:54.766Z,35.72
2022-09-26T01:14:24.776Z,35.76
2022-09-26T01:14:54.802Z,35.76
2022-09-26T01:15:24.823Z,35.75
2022-09-26T01:15:54.826Z,35.72
2022-09-26T01:16:24.897Z,35.71
2022-09-26T01:16:54.989Z,35.64
2022-09-26T01:17:25.103Z,35.68
2022-09-26T01:17:55.076Z,35.68
2022-09-26T01:18:25.094Z,35.66
2022-09-26T01:18:55.115Z,35.70
2022-09-26T01:19:25.131Z,35.64
2022-09-26T01:19:55.148Z,35.64
2022-09-26T01:20:25.167Z,35.67
2022-09-26T01:20:55.182Z,35.67
2022-09-26T01:21:25.202Z,35.68
2022-09-26T01:21:55.216Z,35.68
2022-09-26T01:22:25.233Z,35.61
2022-09-26T01:22:55.247Z,35.72
2022-09-26T01:23:25.261Z,35.62
2022-09-26T01:23:55.275Z,35.69
2022-09-26T01:24:25.293Z,35.68
2022-09-26T01:24:55.308Z,35.62
2022-09-26T01:25:25.322Z,35.64
2022-09-26T01:25:55.339Z,35.64
2022-09-26T01:26:25.355Z,35.65
2022-09-26T01:26:55.370Z,35.65
2022-09-26T01:27:25.386Z,35.64
2022-09-26T01:27:55.402Z,35.61
2022-09-26T01:28:25.432Z,35.65
2022-09-26T01:28:55.440Z,35.65
2022-09-26T01:29:25.540Z,35.64
2022-09-26T01:29:55.642Z,35.64
2022-09-26T01:30:25.834Z,35.63
2022-09-26T01:30:55.901Z,35.62
2022-09-26T01:31:25.995Z,35.64
2022-09-26T01:31:55.977Z,35.61
2022-09-26T01:32:26.079Z,35.61
2022-09-26T01:32:56.215Z,35.64
2022-09-26T01:33:26.285Z,35.61
2022-09-26T01:33:56.385Z,35.62
2022-09-26T01:34:26.490Z,35.58
2022-09-26T01:34:56.598Z,35.62
2022-09-26T01:35:26.706Z,35.62
2022-09-26T01:35:56.807Z,35.60
2022-09-26T01:36:26.912Z,35.62
2022-09-26T01:36:57.016Z,35.62
2022-09-26T01:37:27.116Z,35.62
2022-09-26T01:37:57.223Z,35.61
2022-09-26T01:38:27.325Z,35.66
2022-09-26T01:38:57.438Z,35.65
2022-09-26T01:39:27.468Z,35.71
2022-09-26T01:39:57.485Z,35.71
2022-09-26T01:40:27.577Z,35.71
2022-09-26T01:40:57.653Z,35.74
2022-09-26T01:41:27.638Z,35.75
2022-09-26T01:41:57.654Z,35.77
2022-09-26T01:42:27.667Z,35.76
2022-09-26T01:42:57.678Z,35.84
2022-09-26T01:43:27.693Z,35.84
2022-09-26T01:43:57.721Z,35.84
2022-09-26T01:44:27.754Z,35.82
2022-09-26T01:44:57.762Z,35.88
2022-09-26T01:45:27.776Z,35.90
2022-09-26T01:45:57.854Z,35.85
2022-09-26T01:46:27.995Z,35.90
2022-09-26T01:46:57.935Z,35.96
2022-09-26T01:47:27.952Z,35.93
2022-09-26T01:47:58.077Z,35.93
2022-09-26T01:48:28.058Z,35.92
2022-09-26T01:48:58.064Z,35.89
2022-09-26T01:49:28.095Z,35.93
2022-09-26T01:49:58.108Z,35.94
2022-09-26T01:50:28.125Z,35.95
2022-09-26T01:50:58.149Z,35.94
2022-09-26T01:51:28.170Z,35.94
2022-09-26T01:51:58.187Z,35.93
2022-09-26T01:52:28.214Z,35.97
2022-09-26T01:52:58.231Z,35.90
2022-09-26T01:53:28.242Z,35.93
2022-09-26T01:53:58.256Z,35.89
2022-09-26T01:54:28.289Z,35.92
2022-09-26T01:54:58.306Z,35.93
2022-09-26T01:55:28.318Z,35.85
2022-09-26T01:55:58.335Z,35.87
2022-09-26T01:56:28.359Z,35.88
2022-09-26T01:56:58.368Z,35.88
2022-09-26T01:57:28.385Z,35.80
2022-09-26T01:57:58.400Z,35.81
2022-09-26T01:58:28.411Z,35.81
2022-09-26T01:58:58.428Z,35.81
2022-09-26T01:59:28.473Z,35.78
2022-09-26T01:59:58.492Z,35.76
2022-09-26T02:00:28.504Z,35.78
2022-09-26T02:00:58.611Z,35.77
2022-09-26T02:01:28.665Z,35.76
2022-09-26T02:01:58.619Z,35.78
2022-09-26T02:02:28.758Z,35.76
2022-09-26T02:02:58.653Z,35.77
2022-09-26T02:03:28.690Z,35.72
2022-09-26T02:03:58.680Z,35.73
2022-09-26T02:04:28.710Z,35.76
2022-09-26T02:04:58.731Z,35.71
2022-09-26T02:05:28.752Z,35.69
2022-09-26T02:05:58.760Z,35.71
2022-09-26T02:06:28.780Z,35.69
2022-09-26T02:06:58.800Z,35.69
2022-09-26T02:07:28.817Z,35.69
2022-09-26T02:07:58.834Z,35.64
2022-09-26T02:08:28.851Z,35.67
2022-09-26T02:08:58.859Z,35.65
2022-09-26T02:09:28.887Z,35.66
2022-09-26T02:09:58.900Z,35.63
2022-09-26T02:10:28.915Z,35.65
2022-09-26T02:10:58.926Z,35.62
2022-09-26T02:11:28.946Z,35.67
2022-09-26T02:11:58.961Z,35.58
2022-09-26T02:12:28.988Z,35.65
2022-09-26T02:12:58.990Z,35.64
2022-09-26T02:13:29.008Z,35.65
2022-09-26T02:13:59.033Z,35.60
2022-09-26T02:14:29.057Z,35.66
2022-09-26T02:14:59.071Z,35.65
2022-09-26T02:15:29.092Z,35.62
2022-09-26T02:15:59.110Z,35.62
2022-09-26T02:16:29.179Z,35.65
2022-09-26T02:16:59.240Z,35.65
2022-09-26T02:17:29.248Z,35.61
2022-09-26T02:17:59.266Z,35.59
2022-09-26T02:18:29.279Z,35.60
2022-09-26T02:18:59.323Z,35.57
2022-09-26T02:19:29.331Z,35.64
2022-09-26T02:19:59.349Z,35.62
2022-09-26T02:20:29.357Z,35.63
2022-09-26T02:20:59.376Z,35.63
2022-09-26T02:21:29.388Z,35.59
2022-09-26T02:21:59.405Z,35.56
2022-09-26T02:22:29.427Z,35.65
2022-09-26T02:22:59.442Z,35.62
2022-09-26T02:23:29.458Z,35.66
2022-09-26T02:23:59.472Z,35.66
2022-09-26T02:24:29.507Z,35.71
2022-09-26T02:24:59.561Z,35.68
2022-09-26T02:25:29.579Z,35.71
2022-09-26T02:25:59.590Z,35.71
2022-09-26T02:26:29.609Z,35.72
2022-09-26T02:26:59.622Z,35.75
2022-09-26T02:27:29.641Z,35.72
2022-09-26T02:27:59.659Z,35.85
2022-09-26T02:28:29.683Z,35.81
2022-09-26T02:28:59.672Z,35.85
2022-09-26T02:29:29.792Z,35.86
2022-09-26T02:29:59.769Z,35.85
2022-09-26T02:30:29.883Z,35.82
2022-09-26T02:30:59.985Z,35.83
2022-09-26T02:31:30.136Z,35.84
2022-09-26T02:32:00.205Z,35.85
2022-09-26T02:32:30.095Z,35.86
2022-09-26T02:33:00.198Z,35.89
2022-09-26T02:33:30.299Z,35.90
2022-09-26T02:34:00.399Z,35.93
2022-09-26T02:34:30.544Z,35.86
2022-09-26T02:35:00.500Z,35.88
2022-09-26T02:35:30.602Z,35.90
2022-09-26T02:36:00.723Z,35.87
2022-09-26T02:36:30.815Z,35.89
2022-09-26T02:37:00.919Z,35.89
2022-09-26T02:37:31.028Z,35.86
2022-09-26T02:38:01.126Z,35.88
2022-09-26T02:38:31.239Z,35.89
2022-09-26T02:39:01.230Z,35.86
2022-09-26T02:39:31.254Z,35.85
2022-09-26T02:40:01.277Z,35.84
2022-09-26T02:40:31.346Z,35.89
2022-09-26T02:41:01.494Z,35.84
2022-09-26T02:41:31.409Z,35.82
2022-09-26T02:42:01.432Z,35.81
2022-09-26T02:42:31.444Z,35.82
2022-09-26T02:43:01.460Z,35.78
2022-09-26T02:43:31.475Z,35.74
2022-09-26T02:44:01.489Z,35.73
2022-09-26T02:44:31.521Z,35.76
2022-09-26T02:45:01.538Z,35.75
2022-09-26T02:45:31.590Z,35.73
2022-09-26T02:46:01.857Z,35.69
2022-09-26T02:46:31.653Z,35.68
2022-09-26T02:47:01.663Z,35.69
2022-09-26T02:47:31.677Z,35.65
2022-09-26T02:48:01.695Z,35.68
2022-09-26T02:48:31.709Z,35.71
2022-09-26T02:49:01.729Z,35.65
2022-09-26T02:49:31.755Z,35.66
2022-09-26T02:50:01.793Z,35.69
2022-09-26T02:50:33.567Z,35.68
2022-09-26T02:51:01.858Z,35.68
2022-09-26T02:51:31.888Z,35.65
2022-09-26T02:52:01.901Z,35.60
2022-09-26T02:52:31.919Z,35.64
2022-09-26T02:53:01.929Z,35.61
2022-09-26T02:53:31.954Z,35.64
2022-09-26T02:54:01.963Z,35.58
2022-09-26T02:54:32.002Z,35.57
2022-09-26T02:55:02.015Z,35.57
2022-09-26T02:55:32.045Z,35.51
2022-09-26T02:56:02.055Z,35.54
2022-09-26T02:56:32.068Z,35.54
2022-09-26T02:57:02.084Z,35.57
2022-09-26T02:57:32.097Z,35.50
2022-09-26T02:58:02.118Z,35.51
2022-09-26T02:58:32.126Z,35.53
2022-09-26T02:59:02.143Z,35.53
2022-09-26T02:59:32.172Z,35.49
2022-09-26T03:00:02.193Z,35.51
2022-09-26T03:00:32.199Z,35.57
2022-09-26T03:01:02.319Z,35.51
2022-09-26T03:01:32.418Z,35.50
2022-09-26T03:02:02.329Z,35.51
2022-09-26T03:02:32.338Z,35.53
2022-09-26T03:03:02.353Z,35.51
2022-09-26T03:03:32.458Z,35.60
2022-09-26T03:04:02.488Z,35.55
2022-09-26T03:04:32.572Z,35.57
2022-09-26T03:05:02.709Z,35.63
2022-09-26T03:05:32.729Z,35.60
2022-09-26T03:06:02.709Z,35.63
2022-09-26T03:06:32.783Z,35.61
2022-09-26T03:07:02.794Z,35.65
2022-09-26T03:07:32.804Z,35.67
2022-09-26T03:08:02.818Z,35.67
2022-09-26T03:08:32.832Z,35.69
2022-09-26T03:09:02.852Z,35.66
2022-09-26T03:09:32.875Z,35.69
2022-09-26T03:10:02.887Z,35.68
2022-09-26T03:10:32.909Z,35.68
2022-09-26T03:11:02.921Z,35.67
2022-09-26T03:11:32.936Z,35.70
2022-09-26T03:12:02.968Z,35.67
2022-09-26T03:12:32.980Z,35.62
2022-09-26T03:13:02.990Z,35.66
2022-09-26T03:13:33.013Z,35.69
2022-09-26T03:14:03.026Z,35.66
2022-09-26T03:14:33.047Z,35.71
2022-09-26T03:15:03.064Z,35.68
2022-09-26T03:15:33.109Z,35.67
2022-09-26T03:16:03.187Z,35.63
2022-09-26T03:16:33.284Z,35.63
2022-09-26T03:17:03.285Z,35.70
2022-09-26T03:17:33.296Z,35.65
2022-09-26T03:18:03.316Z,35.69
2022-09-26T03:18:33.326Z,35.66
2022-09-26T03:19:03.338Z,35.67
2022-09-26T03:19:33.359Z,35.63
2022-09-26T03:20:03.370Z,35.64
2022-09-26T03:20:33.386Z,35.63
2022-09-26T03:21:03.420Z,35.69
2022-09-26T03:21:36.970Z,35.65
2022-09-26T03:22:03.515Z,35.63
2022-09-26T03:22:33.528Z,35.65
2022-09-26T03:23:03.547Z,35.65
2022-09-26T03:23:33.560Z,35.63
2022-09-26T03:24:03.575Z,35.65
2022-09-26T03:24:33.606Z,35.68
2022-09-26T03:25:03.617Z,35.68
2022-09-26T03:25:33.635Z,35.66
2022-09-26T03:26:03.649Z,35.66
2022-09-26T03:26:33.666Z,35.63
2022-09-26T03:27:03.683Z,35.60
2022-09-26T03:27:33.700Z,35.66
2022-09-26T03:28:03.718Z,35.65
2022-09-26T03:28:37.617Z,35.67
2022-09-26T03:29:03.820Z,35.69
2022-09-26T03:29:33.923Z,35.63
2022-09-26T03:30:04.029Z,35.63
2022-09-26T03:30:34.133Z,35.60
2022-09-26T03:31:04.234Z,35.60
2022-09-26T03:31:34.409Z,35.65
2022-09-26T03:32:04.458Z,35.60
2022-09-26T03:32:34.453Z,35.60
2022-09-26T03:33:04.551Z,35.60
2022-09-26T03:33:34.650Z,35.63
2022-09-26T03:34:04.757Z,35.65
2022-09-26T03:34:34.863Z,35.57
2022-09-26T03:35:04.963Z,35.60
2022-09-26T03:35:35.063Z,35.61
2022-09-26T03:36:05.172Z,35.60
2022-09-26T03:36:35.385Z,35.63
2022-09-26T03:37:05.324Z,35.64
2022-09-26T03:37:35.425Z,35.59
2022-09-26T03:38:05.527Z,35.59
2022-09-26T03:38:35.631Z,35.56
2022-09-26T03:39:05.649Z,35.59
2022-09-26T03:39:35.658Z,35.63
2022-09-26T03:40:05.673Z,35.64
2022-09-26T03:40:35.757Z,35.60
2022-09-26T03:41:05.782Z,35.62
2022-09-26T03:41:35.798Z,35.60
2022-09-26T03:42:05.814Z,35.64
2022-09-26T03:42:35.833Z,35.65
2022-09-26T03:43:05.845Z,35.64
2022-09-26T03:43:35.857Z,35.64
2022-09-26T03:44:05.883Z,35.66
2022-09-26T03:44:35.897Z,35.64
2022-09-26T03:45:05.910Z,35.64
2022-09-26T03:45:35.973Z,35.63
2022-09-26T03:46:06.039Z,35.61
2022-09-26T03:46:39.849Z,35.66
2022-09-26T03:47:06.038Z,35.67
2022-09-26T03:47:36.049Z,35.67
2022-09-26T03:48:06.069Z,35.68
2022-09-26T03:48:36.091Z,35.65
2022-09-26T03:49:06.136Z,35.64
2022-09-26T03:49:36.134Z,35.68
2022-09-26T03:50:06.146Z,35.69
2022-09-26T03:50:36.168Z,35.74
2022-09-26T03:51:06.206Z,35.73
2022-09-26T03:51:36.231Z,35.77
2022-09-26T03:52:06.285Z,35.76
2022-09-26T03:52:36.374Z,35.76
2022-09-26T03:53:06.393Z,35.76
2022-09-26T03:53:36.463Z,35.78
2022-09-26T03:54:06.478Z,35.83
2022-09-26T03:54:36.546Z,35.76
2022-09-26T03:55:06.565Z,35.83
2022-09-26T03:55:36.581Z,35.83
2022-09-26T03:56:06.600Z,35.84
2022-09-26T03:56:36.610Z,35.80
2022-09-26T03:57:06.626Z,35.85
2022-09-26T03:57:36.639Z,35.85
2022-09-26T03:58:06.650Z,35.84
2022-09-26T03:58:36.675Z,35.85
2022-09-26T03:59:06.733Z,35.89
2022-09-26T03:59:36.710Z,35.90
2022-09-26T04:00:06.761Z,35.86
2022-09-26T04:00:36.813Z,35.88
2022-09-26T04:01:06.878Z,35.85
2022-09-26T04:01:36.893Z,35.89
2022-09-26T04:02:06.970Z,35.89
2022-09-26T04:02:37.132Z,35.91
2022-09-26T04:03:07.049Z,35.88
2022-09-26T04:03:37.068Z,35.90
2022-09-26T04:04:07.082Z,35.89
2022-09-26T04:04:37.094Z,35.87
2022-09-26T04:05:07.105Z,35.82
2022-09-26T04:05:37.143Z,35.83
2022-09-26T04:06:07.163Z,35.82
2022-09-26T04:06:37.183Z,35.85
2022-09-26T04:07:07.203Z,35.84
2022-09-26T04:07:37.323Z,35.86
2022-09-26T04:08:07.305Z,35.83
2022-09-26T04:08:37.317Z,35.85
2022-09-26T04:09:07.327Z,35.79
2022-09-26T04:09:37.349Z,35.79
2022-09-26T04:10:07.366Z,35.77
2022-09-26T04:10:37.379Z,35.76
2022-09-26T04:11:07.398Z,35.78
2022-09-26T04:11:37.405Z,35.76
2022-09-26T04:12:07.434Z,35.74
2022-09-26T04:12:37.458Z,35.77
2022-09-26T04:13:07.476Z,35.71
2022-09-26T04:13:51.351Z,35.71
2022-09-26T04:14:07.524Z,35.70
2022-09-26T04:14:37.543Z,35.78
2022-09-26T04:15:07.561Z,35.73
2022-09-26T04:15:37.576Z,35.73
2022-09-26T04:16:07.686Z,35.72
2022-09-26T04:16:37.632Z,35.75
2022-09-26T04:17:07.615Z,35.76
2022-09-26T04:17:37.631Z,35.75
2022-09-26T04:18:07.652Z,35.71
2022-09-26T04:18:37.669Z,35.69
2022-09-26T04:19:07.686Z,35.70
2022-09-26T04:19:37.701Z,35.71
2022-09-26T04:20:07.720Z,35.72
2022-09-26T04:20:37.733Z,35.66
2022-09-26T04:21:10.001Z,35.64
2022-09-26T04:21:37.807Z,35.67
2022-09-26T04:22:07.822Z,35.68
2022-09-26T04:22:37.837Z,35.66
2022-09-26T04:23:07.882Z,35.67
2022-09-26T04:23:37.862Z,35.68
2022-09-26T04:24:07.880Z,35.70
2022-09-26T04:24:37.903Z,35.66
2022-09-26T04:25:07.914Z,35.63
2022-09-26T04:25:37.924Z,35.65
2022-09-26T04:26:07.937Z,35.63
2022-09-26T04:26:37.949Z,35.62
2022-09-26T04:27:07.969Z,35.60
2022-09-26T04:27:37.990Z,35.59
2022-09-26T04:28:08.009Z,35.62
2022-09-26T04:28:38.020Z,35.59
2022-09-26T04:29:08.137Z,35.55
2022-09-26T04:29:38.252Z,35.54
2022-09-26T04:30:08.357Z,35.46
2022-09-26T04:30:38.461Z,35.47
2022-09-26T04:31:08.628Z,35.48
2022-09-26T04:31:38.620Z,35.40
2022-09-26T04:32:08.710Z,35.30
2022-09-26T04:32:38.819Z,35.30
2022-09-26T04:33:08.924Z,35.29
2022-09-26T04:33:39.035Z,35.29
2022-09-26T04:34:09.132Z,35.29
2022-09-26T04:34:39.240Z,35.28
2022-09-26T04:35:09.344Z,35.33
2022-09-26T04:35:39.449Z,35.40
2022-09-26T04:36:09.557Z,35.48
2022-09-26T04:36:39.660Z,35.44
2022-09-26T04:37:09.763Z,35.46
2022-09-26T04:37:39.871Z,35.48
2022-09-26T04:38:10.002Z,35.59
2022-09-26T04:38:40.089Z,35.58
2022-09-26T04:39:10.093Z,35.71
2022-09-26T04:39:40.117Z,35.73
2022-09-26T04:40:10.343Z,35.80
2022-09-26T04:40:42.840Z,35.81
2022-09-26T04:41:10.267Z,35.87
2022-09-26T04:41:40.192Z,35.92
2022-09-26T04:42:10.208Z,35.96
2022-09-26T04:42:40.224Z,36.00
2022-09-26T04:43:10.244Z,36.00
2022-09-26T04:43:40.258Z,36.00
2022-09-26T04:44:10.264Z,36.03
2022-09-26T04:44:40.290Z,36.03
2022-09-26T04:45:10.304Z,36.07
2022-09-26T04:45:40.392Z,36.04
2022-09-26T04:46:10.488Z,36.09
2022-09-26T04:46:40.495Z,36.10
2022-09-26T04:47:10.511Z,36.09
2022-09-26T04:47:40.532Z,36.05
2022-09-26T04:48:10.558Z,36.01
2022-09-26T04:48:40.573Z,36.05
2022-09-26T04:49:10.587Z,36.05
2022-09-26T04:49:40.671Z,36.04
2022-09-26T04:50:10.690Z,36.00
2022-09-26T04:50:40.705Z,35.94
2022-09-26T04:51:10.717Z,36.04
2022-09-26T04:51:40.735Z,36.00
2022-09-26T04:52:10.755Z,36.01
2022-09-26T04:52:40.768Z,35.99
2022-09-26T04:53:10.786Z,36.00
2022-09-26T04:53:40.827Z,36.07
2022-09-26T04:54:10.827Z,35.99
2022-09-26T04:54:40.857Z,36.02
2022-09-26T04:55:10.877Z,35.99
2022-09-26T04:55:40.894Z,36.03
2022-09-26T04:56:10.912Z,36.05
2022-09-26T04:56:40.927Z,36.04
2022-09-26T04:57:13.006Z,36.02
2022-09-26T04:57:40.980Z,36.10
2022-09-26T04:58:10.995Z,36.09
2022-09-26T04:58:41.015Z,36.06
2022-09-26T04:59:11.030Z,36.06
2022-09-26T04:59:41.047Z,36.10
2022-09-26T05:00:11.064Z,36.07
2022-09-26T05:00:41.123Z,36.10
2022-09-26T05:01:11.273Z,36.07
2022-09-26T05:01:41.225Z,36.06
2022-09-26T05:02:11.296Z,36.08
2022-09-26T05:02:41.366Z,36.05
2022-09-26T05:03:11.364Z,36.01
2022-09-26T05:03:41.381Z,36.01
2022-09-26T05:04:11.400Z,35.98
2022-09-26T05:04:41.420Z,36.02
2022-09-26T05:05:11.456Z,35.98
2022-09-26T05:05:41.451Z,36.00
2022-09-26T05:06:11.467Z,36.05
2022-09-26T05:06:41.489Z,36.09
2022-09-26T05:07:11.500Z,36.06
2022-09-26T05:07:41.518Z,36.05
2022-09-26T05:08:11.535Z,36.11
2022-09-26T05:08:41.556Z,36.13
2022-09-26T05:09:11.738Z,36.09
2022-09-26T05:09:41.630Z,36.13
2022-09-26T05:10:11.646Z,36.11
2022-09-26T05:10:41.663Z,36.11
2022-09-26T05:11:11.680Z,36.07
2022-09-26T05:11:41.697Z,36.07
2022-09-26T05:12:11.710Z,36.04
2022-09-26T05:12:41.727Z,36.05
2022-09-26T05:13:11.743Z,36.09
2022-09-26T05:13:41.759Z,36.13
2022-09-26T05:14:11.785Z,36.15
2022-09-26T05:14:41.808Z,36.20
2022-09-26T05:15:11.824Z,36.23
2022-09-26T05:15:41.846Z,36.20
2022-09-26T05:16:11.876Z,36.21
2022-09-26T05:16:41.931Z,36.21
2022-09-26T05:17:11.944Z,36.20
2022-09-26T05:17:41.960Z,36.23
2022-09-26T05:18:11.979Z,36.23
2022-09-26T05:18:41.994Z,36.22
2022-09-26T05:19:12.105Z,36.21
2022-09-26T05:19:42.029Z,36.22
2022-09-26T05:20:12.047Z,36.20
2022-09-26T05:20:42.071Z,36.23
2022-09-26T05:21:12.090Z,36.30
2022-09-26T05:21:42.111Z,36.24
2022-09-26T05:22:12.127Z,36.26
2022-09-26T05:22:42.150Z,36.23
2022-09-26T05:23:12.167Z,36.24
2022-09-26T05:23:44.813Z,36.26
2022-09-26T05:24:12.177Z,36.30
2022-09-26T05:24:42.223Z,36.34
2022-09-26T05:25:12.213Z,36.32
2022-09-26T05:25:42.237Z,36.31
2022-09-26T05:26:12.252Z,36.35
2022-09-26T05:26:42.268Z,36.34
2022-09-26T05:27:12.307Z,36.35
2022-09-26T05:27:42.331Z,36.33
2022-09-26T05:28:12.354Z,36.30
2022-09-26T05:28:42.366Z,36.37
2022-09-26T05:29:12.846Z,36.30
2022-09-26T05:29:42.480Z,36.25
2022-09-26T05:30:12.581Z,36.30
2022-09-26T05:30:42.689Z,36.29
2022-09-26T05:31:12.838Z,36.27
2022-09-26T05:31:42.855Z,36.26
2022-09-26T05:32:12.816Z,36.30
2022-09-26T05:32:42.920Z,36.28
2022-09-26T05:33:13.045Z,36.31
2022-09-26T05:33:43.127Z,36.25
2022-09-26T05:34:18.405Z,36.22
2022-09-26T05:34:43.241Z,36.24
2022-09-26T05:35:13.344Z,36.28
2022-09-26T05:35:43.474Z,36.28
2022-09-26T05:36:13.457Z,36.24
2022-09-26T05:36:43.575Z,36.28
2022-09-26T05:37:13.681Z,36.23
2022-09-26T05:37:43.784Z,36.21
2022-09-26T05:38:13.895Z,36.25
2022-09-26T05:38:44.009Z,36.26
2022-09-26T05:39:14.133Z,36.28
2022-09-26T05:39:44.059Z,36.22
2022-09-26T05:40:14.116Z,36.27
2022-09-26T05:40:44.204Z,36.27
2022-09-26T05:41:14.235Z,36.25
2022-09-26T05:41:44.252Z,36.28
2022-09-26T05:42:14.263Z,36.31
2022-09-26T05:42:44.279Z,36.29
2022-09-26T05:43:14.303Z,36.32
2022-09-26T05:43:44.324Z,36.32
2022-09-26T05:44:14.327Z,36.36
2022-09-26T05:44:44.343Z,36.37
2022-09-26T05:45:14.355Z,36.39
2022-09-26T05:45:44.373Z,36.34
2022-09-26T05:46:14.449Z,36.34
2022-09-26T05:46:44.499Z,36.42
2022-09-26T05:47:14.604Z,36.39
2022-09-26T05:47:44.627Z,36.39
2022-09-26T05:48:14.644Z,36.39
2022-09-26T05:48:44.667Z,36.36
2022-09-26T05:49:14.817Z,36.28
2022-09-26T05:49:44.711Z,36.26
2022-09-26T05:50:14.735Z,36.25
2022-09-26T05:50:44.762Z,36.23
2022-09-26T05:51:14.776Z,36.28
2022-09-26T05:51:44.790Z,36.32
2022-09-26T05:52:14.807Z,36.42
2022-09-26T05:52:44.831Z,36.33
2022-09-26T05:53:14.850Z,36.39
2022-09-26T05:53:44.866Z,36.34
2022-09-26T05:54:14.890Z,36.45
2022-09-26T05:54:44.903Z,36.40
2022-09-26T05:55:14.942Z,36.44
2022-09-26T05:55:44.985Z,36.43
2022-09-26T05:56:18.747Z,36.47
2022-09-26T05:56:45.042Z,36.50
2022-09-26T05:57:15.056Z,36.44
2022-09-26T05:57:45.080Z,36.46
2022-09-26T05:58:15.086Z,36.46
2022-09-26T05:58:45.102Z,36.44
2022-09-26T05:59:15.204Z,36.40
2022-09-26T05:59:45.178Z,36.38
2022-09-26T06:00:15.191Z,36.36
2022-09-26T06:00:45.267Z,36.35
2022-09-26T06:01:15.438Z,36.38
2022-09-26T06:01:45.411Z,36.42
2022-09-26T06:02:20.061Z,36.31
2022-09-26T06:02:45.628Z,36.38
2022-09-26T06:03:15.523Z,36.39
2022-09-26T06:03:45.543Z,36.40
2022-09-26T06:04:15.569Z,36.41
2022-09-26T06:04:45.601Z,36.36
2022-09-26T06:05:15.620Z,36.30
2022-09-26T06:05:45.640Z,36.35
2022-09-26T06:06:15.668Z,36.33
2022-09-26T06:06:45.669Z,36.37
2022-09-26T06:07:15.686Z,36.43
2022-09-26T06:07:45.701Z,36.47
2022-09-26T06:08:15.711Z,36.46
2022-09-26T06:08:45.729Z,36.48
2022-09-26T06:09:15.961Z,36.53
2022-09-26T06:09:45.757Z,36.54
2022-09-26T06:10:15.774Z,36.54
2022-09-26T06:10:45.791Z,36.63
2022-09-26T06:11:15.831Z,36.61
2022-09-26T06:11:45.838Z,36.61
2022-09-26T06:12:15.849Z,36.60
2022-09-26T06:12:50.703Z,36.68
2022-09-26T06:13:15.906Z,36.63
2022-09-26T06:13:46.068Z,36.61
2022-09-26T06:14:15.929Z,36.64
2022-09-26T06:14:45.955Z,36.59
2022-09-26T06:15:15.968Z,36.58
2022-09-26T06:15:45.989Z,36.57
2022-09-26T06:16:16.167Z,36.60
2022-09-26T06:16:46.180Z,36.54
2022-09-26T06:17:16.123Z,36.57
2022-09-26T06:17:46.145Z,36.63
2022-09-26T06:18:16.158Z,36.63
2022-09-26T06:18:46.175Z,36.60
2022-09-26T06:19:20.582Z,36.61
2022-09-26T06:19:46.237Z,36.65
2022-09-26T06:20:16.247Z,36.72
2022-09-26T06:20:46.274Z,36.73
2022-09-26T06:21:16.286Z,36.68
2022-09-26T06:21:46.308Z,36.72
2022-09-26T06:22:16.324Z,36.73
2022-09-26T06:22:46.345Z,36.76
2022-09-26T06:23:16.362Z,36.74
2022-09-26T06:23:46.373Z,36.73
2022-09-26T06:24:16.393Z,36.74
2022-09-26T06:24:46.411Z,36.73
2022-09-26T06:25:16.432Z,36.77
2022-09-26T06:25:46.455Z,36.79
2022-09-26T06:26:16.466Z,36.76
2022-09-26T06:26:46.508Z,36.83